sensor_id;sensor_type;location;lat;lon;timestamp;P1;durP1;ratioP1;P2;durP2;ratioP2
351;SDS011;164;50.784;6.496;2022-12-20T00:00:06;1.92;;;1.70;;
351;SDS011;164;50.784;6.496;2022-12-20T00:02:34;1.90;;;1.77;;
351;SDS011;164;50.784;6.496;2022-12-20T00:05:03;2.17;;;1.70;;
351;SDS011;164;50.784;6.496;2022-12-20T00:07:30;1.40;;;1.35;;
351;SDS011;164;50.784;6.496;2022-12-20T00:10:00;1.73;;;1.70;;
351;SDS011;164;50.784;6.496;2022-12-20T00:12:27;1.55;;;1.48;;
351;SDS011;164;50.784;6.496;2022-12-20T00:14:54;2.83;;;1.90;;
351;SDS011;164;50.784;6.496;2022-12-20T00:17:21;5.85;;;1.70;;
351;SDS011;164;50.784;6.496;2022-12-20T00:19:49;1.98;;;1.60;;
351;SDS011;164;50.784;6.496;2022-12-20T00:22:18;3.28;;;2.92;;
351;SDS011;164;50.784;6.496;2022-12-20T00:24:45;3.55;;;3.22;;
351;SDS011;164;50.784;6.496;2022-12-20T00:27:12;4.28;;;2.58;;
351;SDS011;164;50.784;6.496;2022-12-20T00:29:40;3.22;;;2.30;;
351;SDS011;164;50.784;6.496;2022-12-20T00:32:07;3.10;;;2.85;;
351;SDS011;164;50.784;6.496;2022-12-20T00:34:34;2.97;;;2.80;;
351;SDS011;164;50.784;6.496;2022-12-20T00:37:01;4.15;;;2.78;;
351;SDS011;164;50.784;6.496;2022-12-20T00:39:29;2.67;;;2.47;;
351;SDS011;164;50.784;6.496;2022-12-20T00:41:57;3.05;;;2.45;;
351;SDS011;164;50.784;6.496;2022-12-20T00:44:24;2.88;;;2.67;;
351;SDS011;164;50.784;6.496;2022-12-20T00:46:53;3.92;;;2.40;;
351;SDS011;164;50.784;6.496;2022-12-20T00:49:20;2.80;;;2.63;;
351;SDS011;164;50.784;6.496;2022-12-20T00:51:47;3.53;;;2.88;;
351;SDS011;164;50.784;6.496;2022-12-20T00:54:14;3.20;;;2.90;;
351;SDS011;164;50.784;6.496;2022-12-20T00:56:43;3.58;;;2.75;;
351;SDS011;164;50.784;6.496;2022-12-20T00:59:10;3.20;;;3.00;;
351;SDS011;164;50.784;6.496;2022-12-20T01:01:37;4.38;;;2.53;;
351;SDS011;164;50.784;6.496;2022-12-20T01:04:05;3.67;;;2.47;;
351;SDS011;164;50.784;6.496;2022-12-20T01:06:32;2.17;;;1.90;;
351;SDS011;164;50.784;6.496;2022-12-20T01:09:00;2.65;;;2.40;;
351;SDS011;164;50.784;6.496;2022-12-20T01:11:27;3.45;;;2.03;;
351;SDS011;164;50.784;6.496;2022-12-20T01:13:58;4.13;;;2.42;;
351;SDS011;164;50.784;6.496;2022-12-20T01:16:26;2.67;;;2.45;;
351;SDS011;164;50.784;6.496;2022-12-20T01:18:54;2.17;;;1.98;;
351;SDS011;164;50.784;6.496;2022-12-20T01:21:22;3.20;;;2.70;;
351;SDS011;164;50.784;6.496;2022-12-20T01:23:50;3.05;;;2.20;;
351;SDS011;164;50.784;6.496;2022-12-20T01:26:18;4.70;;;2.50;;
351;SDS011;164;50.784;6.496;2022-12-20T01:28:48;2.92;;;2.72;;
351;SDS011;164;50.784;6.496;2022-12-20T01:31:17;2.50;;;2.30;;
351;SDS011;164;50.784;6.496;2022-12-20T01:33:45;3.30;;;2.53;;
351;SDS011;164;50.784;6.496;2022-12-20T01:36:13;3.72;;;2.60;;
351;SDS011;164;50.784;6.496;2022-12-20T01:38:41;3.45;;;2.70;;
351;SDS011;164;50.784;6.496;2022-12-20T01:41:09;3.17;;;2.97;;
351;SDS011;164;50.784;6.496;2022-12-20T01:43:45;3.78;;;3.38;;
351;SDS011;164;50.784;6.496;2022-12-20T01:46:12;2.90;;;2.60;;
351;SDS011;164;50.784;6.496;2022-12-20T01:48:40;2.60;;;2.40;;
351;SDS011;164;50.784;6.496;2022-12-20T01:51:09;4.07;;;2.53;;
351;SDS011;164;50.784;6.496;2022-12-20T01:53:36;2.80;;;2.60;;
351;SDS011;164;50.784;6.496;2022-12-20T01:56:04;3.33;;;2.83;;
351;SDS011;164;50.784;6.496;2022-12-20T01:58:32;3.13;;;2.95;;
351;SDS011;164;50.784;6.496;2022-12-20T02:01:02;3.20;;;3.00;;
351;SDS011;164;50.784;6.496;2022-12-20T02:03:29;2.78;;;2.58;;
351;SDS011;164;50.784;6.496;2022-12-20T02:06:05;2.55;;;2.28;;
351;SDS011;164;50.784;6.496;2022-12-20T02:08:35;2.47;;;2.28;;
351;SDS011;164;50.784;6.496;2022-12-20T02:11:13;4.50;;;2.17;;
351;SDS011;164;50.784;6.496;2022-12-20T02:13:44;2.75;;;2.55;;
351;SDS011;164;50.784;6.496;2022-12-20T02:16:14;2.63;;;2.42;;
351;SDS011;164;50.784;6.496;2022-12-20T02:18:44;3.03;;;2.15;;
351;SDS011;164;50.784;6.496;2022-12-20T02:21:22;3.72;;;2.53;;
351;SDS011;164;50.784;6.496;2022-12-20T02:24:11;2.60;;;2.20;;
351;SDS011;164;50.784;6.496;2022-12-20T02:29:56;3.00;;;2.05;;
351;SDS011;164;50.784;6.496;2022-12-20T02:32:25;2.30;;;2.10;;
351;SDS011;164;50.784;6.496;2022-12-20T02:34:54;2.30;;;2.10;;
351;SDS011;164;50.784;6.496;2022-12-20T02:37:22;3.10;;;2.30;;
351;SDS011;164;50.784;6.496;2022-12-20T02:39:49;4.28;;;2.53;;
351;SDS011;164;50.784;6.496;2022-12-20T02:42:18;3.88;;;2.67;;
351;SDS011;164;50.784;6.496;2022-12-20T02:44:49;3.97;;;2.47;;
351;SDS011;164;50.784;6.496;2022-12-20T02:47:36;2.03;;;1.90;;
351;SDS011;164;50.784;6.496;2022-12-20T02:50:05;2.70;;;2.50;;
351;SDS011;164;50.784;6.496;2022-12-20T02:52:38;3.10;;;2.22;;
351;SDS011;164;50.784;6.496;2022-12-20T02:55:06;4.00;;;2.95;;
351;SDS011;164;50.784;6.496;2022-12-20T02:57:36;3.40;;;2.20;;
351;SDS011;164;50.784;6.496;2022-12-20T03:00:05;2.72;;;2.10;;
351;SDS011;164;50.784;6.496;2022-12-20T03:02:38;4.68;;;2.92;;
351;SDS011;164;50.784;6.496;2022-12-20T03:05:24;3.80;;;2.17;;
351;SDS011;164;50.784;6.496;2022-12-20T03:07:52;13.77;;;3.28;;
351;SDS011;164;50.784;6.496;2022-12-20T03:10:20;3.17;;;2.38;;
351;SDS011;164;50.784;6.496;2022-12-20T03:12:47;2.20;;;2.00;;
351;SDS011;164;50.784;6.496;2022-12-20T03:15:15;3.80;;;2.85;;
351;SDS011;164;50.784;6.496;2022-12-20T03:17:43;3.63;;;2.53;;
351;SDS011;164;50.784;6.496;2022-12-20T03:20:11;4.00;;;3.83;;
351;SDS011;164;50.784;6.496;2022-12-20T03:22:38;3.38;;;2.60;;
351;SDS011;164;50.784;6.496;2022-12-20T03:25:07;2.67;;;2.47;;
351;SDS011;164;50.784;6.496;2022-12-20T03:27:34;3.33;;;2.45;;
351;SDS011;164;50.784;6.496;2022-12-20T03:30:01;3.97;;;2.67;;
351;SDS011;164;50.784;6.496;2022-12-20T03:32:29;2.92;;;2.70;;
351;SDS011;164;50.784;6.496;2022-12-20T03:34:58;5.18;;;3.05;;
351;SDS011;164;50.784;6.496;2022-12-20T03:37:25;3.22;;;3.10;;
351;SDS011;164;50.784;6.496;2022-12-20T03:39:52;3.85;;;3.35;;
351;SDS011;164;50.784;6.496;2022-12-20T03:42:19;3.00;;;2.53;;
351;SDS011;164;50.784;6.496;2022-12-20T03:44:47;4.60;;;3.20;;
351;SDS011;164;50.784;6.496;2022-12-20T03:47:14;2.92;;;2.75;;
351;SDS011;164;50.784;6.496;2022-12-20T03:49:41;3.42;;;3.08;;
351;SDS011;164;50.784;6.496;2022-12-20T03:52:10;3.15;;;2.95;;
351;SDS011;164;50.784;6.496;2022-12-20T03:54:37;4.28;;;2.80;;
351;SDS011;164;50.784;6.496;2022-12-20T03:57:05;3.53;;;3.35;;
351;SDS011;164;50.784;6.496;2022-12-20T03:59:32;6.30;;;3.50;;
351;SDS011;164;50.784;6.496;2022-12-20T04:02:09;6.32;;;2.85;;
351;SDS011;164;50.784;6.496;2022-12-20T04:04:36;3.33;;;3.05;;
351;SDS011;164;50.784;6.496;2022-12-20T04:07:03;4.38;;;2.60;;
351;SDS011;164;50.784;6.496;2022-12-20T04:09:36;3.55;;;2.80;;
351;SDS011;164;50.784;6.496;2022-12-20T04:12:04;4.57;;;3.13;;
351;SDS011;164;50.784;6.496;2022-12-20T04:14:31;4.47;;;2.60;;
351;SDS011;164;50.784;6.496;2022-12-20T04:16:58;3.00;;;2.80;;
351;SDS011;164;50.784;6.496;2022-12-20T04:19:28;3.35;;;3.10;;
351;SDS011;164;50.784;6.496;2022-12-20T04:21:55;4.25;;;2.95;;
351;SDS011;164;50.784;6.496;2022-12-20T04:24:22;2.80;;;2.60;;
351;SDS011;164;50.784;6.496;2022-12-20T04:26:51;2.45;;;2.30;;
351;SDS011;164;50.784;6.496;2022-12-20T04:29:20;2.63;;;2.30;;
351;SDS011;164;50.784;6.496;2022-12-20T04:31:47;3.20;;;3.05;;
351;SDS011;164;50.784;6.496;2022-12-20T04:34:14;1.98;;;1.85;;
351;SDS011;164;50.784;6.496;2022-12-20T04:36:41;4.18;;;3.25;;
351;SDS011;164;50.784;6.496;2022-12-20T04:39:08;3.78;;;2.22;;
351;SDS011;164;50.784;6.496;2022-12-20T04:41:35;3.08;;;2.40;;
351;SDS011;164;50.784;6.496;2022-12-20T04:44:04;2.40;;;2.20;;
351;SDS011;164;50.784;6.496;2022-12-20T04:46:32;2.20;;;2.00;;
351;SDS011;164;50.784;6.496;2022-12-20T04:49:00;1.92;;;1.83;;
351;SDS011;164;50.784;6.496;2022-12-20T04:51:27;2.38;;;2.00;;
351;SDS011;164;50.784;6.496;2022-12-20T04:53:55;2.25;;;2.05;;
351;SDS011;164;50.784;6.496;2022-12-20T04:56:22;2.45;;;1.95;;
351;SDS011;164;50.784;6.496;2022-12-20T04:58:50;3.08;;;2.13;;
351;SDS011;164;50.784;6.496;2022-12-20T05:01:20;4.15;;;1.90;;
351;SDS011;164;50.784;6.496;2022-12-20T05:03:47;3.03;;;2.05;;
351;SDS011;164;50.784;6.496;2022-12-20T05:06:15;2.67;;;2.45;;
351;SDS011;164;50.784;6.496;2022-12-20T05:08:42;2.40;;;1.80;;
351;SDS011;164;50.784;6.496;2022-12-20T05:11:09;2.40;;;1.75;;
351;SDS011;164;50.784;6.496;2022-12-20T05:13:37;1.77;;;1.75;;
351;SDS011;164;50.784;6.496;2022-12-20T05:16:04;2.38;;;1.90;;
351;SDS011;164;50.784;6.496;2022-12-20T05:18:33;1.80;;;1.80;;
351;SDS011;164;50.784;6.496;2022-12-20T05:21:00;1.52;;;1.35;;
351;SDS011;164;50.784;6.496;2022-12-20T05:23:45;2.28;;;2.10;;
351;SDS011;164;50.784;6.496;2022-12-20T05:26:35;2.25;;;1.85;;
351;SDS011;164;50.784;6.496;2022-12-20T05:29:03;2.33;;;1.83;;
351;SDS011;164;50.784;6.496;2022-12-20T05:31:34;2.45;;;2.28;;
351;SDS011;164;50.784;6.496;2022-12-20T05:34:02;2.10;;;1.95;;
351;SDS011;164;50.784;6.496;2022-12-20T05:36:30;2.35;;;1.83;;
351;SDS011;164;50.784;6.496;2022-12-20T05:38:57;2.60;;;1.85;;
351;SDS011;164;50.784;6.496;2022-12-20T05:41:24;3.30;;;2.10;;
351;SDS011;164;50.784;6.496;2022-12-20T05:43:52;2.15;;;1.75;;
351;SDS011;164;50.784;6.496;2022-12-20T05:46:19;1.80;;;1.70;;
351;SDS011;164;50.784;6.496;2022-12-20T05:48:46;1.75;;;1.65;;
351;SDS011;164;50.784;6.496;2022-12-20T05:51:15;2.28;;;1.67;;
351;SDS011;164;50.784;6.496;2022-12-20T05:53:42;2.20;;;1.55;;
351;SDS011;164;50.784;6.496;2022-12-20T05:56:09;1.92;;;1.83;;
351;SDS011;164;50.784;6.496;2022-12-20T05:58:37;1.75;;;1.65;;
351;SDS011;164;50.784;6.496;2022-12-20T06:01:05;2.95;;;1.63;;
351;SDS011;164;50.784;6.496;2022-12-20T06:03:33;1.85;;;1.85;;
351;SDS011;164;50.784;6.496;2022-12-20T06:06:01;2.95;;;1.80;;
351;SDS011;164;50.784;6.496;2022-12-20T06:08:30;2.35;;;1.52;;
351;SDS011;164;50.784;6.496;2022-12-20T06:10:57;1.70;;;1.60;;
351;SDS011;164;50.784;6.496;2022-12-20T06:13:25;2.50;;;1.60;;
351;SDS011;164;50.784;6.496;2022-12-20T06:15:52;2.35;;;1.60;;
351;SDS011;164;50.784;6.496;2022-12-20T06:18:19;2.50;;;1.85;;
351;SDS011;164;50.784;6.496;2022-12-20T06:20:48;2.15;;;1.48;;
351;SDS011;164;50.784;6.496;2022-12-20T06:23:16;2.63;;;1.77;;
351;SDS011;164;50.784;6.496;2022-12-20T06:25:45;3.05;;;2.00;;
351;SDS011;164;50.784;6.496;2022-12-20T06:28:12;2.25;;;1.70;;
351;SDS011;164;50.784;6.496;2022-12-20T06:30:50;2.08;;;1.70;;
351;SDS011;164;50.784;6.496;2022-12-20T06:33:18;2.17;;;1.80;;
351;SDS011;164;50.784;6.496;2022-12-20T06:35:45;1.70;;;1.60;;
351;SDS011;164;50.784;6.496;2022-12-20T06:38:12;2.20;;;1.60;;
351;SDS011;164;50.784;6.496;2022-12-20T06:40:40;2.83;;;1.92;;
351;SDS011;164;50.784;6.496;2022-12-20T06:43:08;2.30;;;2.10;;
351;SDS011;164;50.784;6.496;2022-12-20T06:45:35;2.58;;;1.83;;
351;SDS011;164;50.784;6.496;2022-12-20T06:48:03;2.28;;;2.10;;
351;SDS011;164;50.784;6.496;2022-12-20T06:50:30;2.10;;;1.65;;
351;SDS011;164;50.784;6.496;2022-12-20T06:52:57;2.00;;;1.27;;
351;SDS011;164;50.784;6.496;2022-12-20T06:55:24;1.80;;;1.70;;
351;SDS011;164;50.784;6.496;2022-12-20T06:57:52;1.58;;;1.30;;
351;SDS011;164;50.784;6.496;2022-12-20T07:00:21;2.40;;;2.00;;
351;SDS011;164;50.784;6.496;2022-12-20T07:02:48;2.72;;;2.03;;
351;SDS011;164;50.784;6.496;2022-12-20T07:05:16;1.88;;;1.52;;
351;SDS011;164;50.784;6.496;2022-12-20T07:07:43;3.40;;;1.75;;
351;SDS011;164;50.784;6.496;2022-12-20T07:10:10;3.65;;;1.80;;
351;SDS011;164;50.784;6.496;2022-12-20T07:12:38;2.30;;;1.77;;
351;SDS011;164;50.784;6.496;2022-12-20T07:15:06;1.80;;;1.80;;
351;SDS011;164;50.784;6.496;2022-12-20T07:17:35;5.05;;;2.28;;
351;SDS011;164;50.784;6.496;2022-12-20T07:20:02;1.67;;;1.27;;
351;SDS011;164;50.784;6.496;2022-12-20T07:22:31;1.33;;;1.30;;
351;SDS011;164;50.784;6.496;2022-12-20T07:25:00;2.08;;;1.40;;
351;SDS011;164;50.784;6.496;2022-12-20T07:27:27;2.58;;;1.85;;
351;SDS011;164;50.784;6.496;2022-12-20T07:29:54;1.60;;;1.50;;
351;SDS011;164;50.784;6.496;2022-12-20T07:32:21;1.92;;;1.52;;
351;SDS011;164;50.784;6.496;2022-12-20T07:34:50;2.00;;;1.40;;
351;SDS011;164;50.784;6.496;2022-12-20T07:37:18;1.52;;;1.02;;
351;SDS011;164;50.784;6.496;2022-12-20T07:39:45;1.08;;;0.98;;
351;SDS011;164;50.784;6.496;2022-12-20T07:42:12;1.75;;;1.65;;
351;SDS011;164;50.784;6.496;2022-12-20T07:44:41;2.55;;;1.70;;
351;SDS011;164;50.784;6.496;2022-12-20T07:47:08;2.13;;;1.63;;
351;SDS011;164;50.784;6.496;2022-12-20T07:49:35;2.25;;;1.58;;
351;SDS011;164;50.784;6.496;2022-12-20T07:52:04;3.13;;;1.55;;
351;SDS011;164;50.784;6.496;2022-12-20T07:54:34;3.97;;;2.00;;
351;SDS011;164;50.784;6.496;2022-12-20T07:57:03;2.20;;;1.40;;
351;SDS011;164;50.784;6.496;2022-12-20T07:59:33;1.20;;;1.10;;
351;SDS011;164;50.784;6.496;2022-12-20T08:02:02;3.47;;;1.60;;
351;SDS011;164;50.784;6.496;2022-12-20T08:04:29;6.13;;;1.90;;
351;SDS011;164;50.784;6.496;2022-12-20T08:06:57;1.73;;;1.27;;
351;SDS011;164;50.784;6.496;2022-12-20T08:09:33;2.38;;;1.77;;
351;SDS011;164;50.784;6.496;2022-12-20T08:12:02;2.50;;;1.65;;
351;SDS011;164;50.784;6.496;2022-12-20T08:14:29;1.88;;;1.60;;
351;SDS011;164;50.784;6.496;2022-12-20T08:16:57;1.83;;;1.38;;
351;SDS011;164;50.784;6.496;2022-12-20T08:19:24;1.50;;;1.35;;
351;SDS011;164;50.784;6.496;2022-12-20T08:21:52;4.10;;;1.60;;
351;SDS011;164;50.784;6.496;2022-12-20T08:24:19;2.45;;;1.75;;
351;SDS011;164;50.784;6.496;2022-12-20T08:26:47;2.63;;;1.15;;
351;SDS011;164;50.784;6.496;2022-12-20T08:29:15;2.15;;;1.55;;
351;SDS011;164;50.784;6.496;2022-12-20T08:31:42;3.17;;;1.70;;
351;SDS011;164;50.784;6.496;2022-12-20T08:34:09;1.30;;;1.13;;
351;SDS011;164;50.784;6.496;2022-12-20T08:36:39;1.90;;;1.25;;
351;SDS011;164;50.784;6.496;2022-12-20T08:39:08;1.95;;;1.30;;
351;SDS011;164;50.784;6.496;2022-12-20T08:41:35;2.30;;;1.70;;
351;SDS011;164;50.784;6.496;2022-12-20T08:44:04;3.30;;;2.20;;
351;SDS011;164;50.784;6.496;2022-12-20T08:46:31;2.30;;;1.88;;
351;SDS011;164;50.784;6.496;2022-12-20T08:48:59;6.65;;;2.05;;
351;SDS011;164;50.784;6.496;2022-12-20T08:51:26;3.97;;;2.15;;
351;SDS011;164;50.784;6.496;2022-12-20T08:53:53;3.08;;;2.42;;
351;SDS011;164;50.784;6.496;2022-12-20T08:56:20;4.35;;;1.80;;
351;SDS011;164;50.784;6.496;2022-12-20T08:58:48;5.50;;;2.60;;
351;SDS011;164;50.784;6.496;2022-12-20T09:01:17;3.90;;;1.77;;
351;SDS011;164;50.784;6.496;2022-12-20T09:03:46;4.55;;;1.80;;
351;SDS011;164;50.784;6.496;2022-12-20T09:06:15;2.35;;;1.67;;
351;SDS011;164;50.784;6.496;2022-12-20T09:08:42;2.95;;;1.50;;
351;SDS011;164;50.784;6.496;2022-12-20T09:11:10;3.65;;;2.50;;
351;SDS011;164;50.784;6.496;2022-12-20T09:13:38;4.72;;;1.80;;
351;SDS011;164;50.784;6.496;2022-12-20T09:16:05;4.03;;;2.13;;
351;SDS011;164;50.784;6.496;2022-12-20T09:18:35;4.47;;;1.83;;
351;SDS011;164;50.784;6.496;2022-12-20T09:21:03;1.65;;;1.20;;
351;SDS011;164;50.784;6.496;2022-12-20T09:23:30;4.55;;;2.92;;
351;SDS011;164;50.784;6.496;2022-12-20T09:26:00;1.80;;;1.60;;
351;SDS011;164;50.784;6.496;2022-12-20T09:28:28;2.15;;;1.60;;
351;SDS011;164;50.784;6.496;2022-12-20T09:30:56;2.92;;;1.80;;
351;SDS011;164;50.784;6.496;2022-12-20T09:33:24;2.47;;;1.45;;
351;SDS011;164;50.784;6.496;2022-12-20T09:35:52;3.25;;;2.08;;
351;SDS011;164;50.784;6.496;2022-12-20T09:38:20;1.90;;;1.60;;
351;SDS011;164;50.784;6.496;2022-12-20T09:40:48;3.22;;;1.85;;
351;SDS011;164;50.784;6.496;2022-12-20T09:43:16;4.60;;;1.90;;
351;SDS011;164;50.784;6.496;2022-12-20T09:45:45;1.88;;;1.83;;
351;SDS011;164;50.784;6.496;2022-12-20T09:48:15;4.60;;;1.85;;
351;SDS011;164;50.784;6.496;2022-12-20T09:50:45;3.33;;;1.50;;
351;SDS011;164;50.784;6.496;2022-12-20T09:53:18;2.35;;;2.08;;
351;SDS011;164;50.784;6.496;2022-12-20T09:55:49;4.38;;;1.70;;
351;SDS011;164;50.784;6.496;2022-12-20T09:58:21;3.08;;;1.90;;
351;SDS011;164;50.784;6.496;2022-12-20T10:00:51;2.30;;;1.52;;
351;SDS011;164;50.784;6.496;2022-12-20T10:03:19;2.80;;;2.00;;
351;SDS011;164;50.784;6.496;2022-12-20T10:05:49;1.42;;;1.38;;
351;SDS011;164;50.784;6.496;2022-12-20T10:08:23;3.90;;;1.67;;
351;SDS011;164;50.784;6.496;2022-12-20T10:10:55;6.80;;;2.15;;
351;SDS011;164;50.784;6.496;2022-12-20T10:13:34;2.30;;;1.55;;
351;SDS011;164;50.784;6.496;2022-12-20T10:16:06;3.13;;;1.70;;
351;SDS011;164;50.784;6.496;2022-12-20T10:18:44;2.97;;;1.92;;
351;SDS011;164;50.784;6.496;2022-12-20T10:21:16;2.53;;;1.92;;
351;SDS011;164;50.784;6.496;2022-12-20T10:23:48;2.17;;;1.63;;
351;SDS011;164;50.784;6.496;2022-12-20T10:26:21;2.03;;;1.83;;
351;SDS011;164;50.784;6.496;2022-12-20T10:28:48;3.28;;;1.70;;
351;SDS011;164;50.784;6.496;2022-12-20T10:31:16;4.30;;;1.95;;
351;SDS011;164;50.784;6.496;2022-12-20T10:33:44;2.55;;;2.28;;
351;SDS011;164;50.784;6.496;2022-12-20T10:36:18;5.40;;;2.55;;
351;SDS011;164;50.784;6.496;2022-12-20T10:38:48;5.07;;;1.95;;
351;SDS011;164;50.784;6.496;2022-12-20T10:41:16;2.65;;;2.00;;
351;SDS011;164;50.784;6.496;2022-12-20T10:43:43;2.22;;;1.92;;
351;SDS011;164;50.784;6.496;2022-12-20T10:46:12;2.78;;;1.90;;
351;SDS011;164;50.784;6.496;2022-12-20T10:48:42;2.85;;;1.70;;
351;SDS011;164;50.784;6.496;2022-12-20T10:51:13;3.15;;;2.00;;
351;SDS011;164;50.784;6.496;2022-12-20T10:53:53;3.05;;;1.73;;
351;SDS011;164;50.784;6.496;2022-12-20T10:56:21;3.17;;;1.98;;
351;SDS011;164;50.784;6.496;2022-12-20T10:58:53;2.65;;;1.98;;
351;SDS011;164;50.784;6.496;2022-12-20T11:01:20;4.00;;;2.10;;
351;SDS011;164;50.784;6.496;2022-12-20T11:03:49;2.55;;;1.63;;
351;SDS011;164;50.784;6.496;2022-12-20T11:06:18;2.63;;;1.50;;
351;SDS011;164;50.784;6.496;2022-12-20T11:15:07;3.47;;;1.60;;
351;SDS011;164;50.784;6.496;2022-12-20T11:17:35;3.83;;;1.55;;
351;SDS011;164;50.784;6.496;2022-12-20T11:20:07;3.50;;;2.20;;
351;SDS011;164;50.784;6.496;2022-12-20T11:22:43;3.90;;;1.50;;
351;SDS011;164;50.784;6.496;2022-12-20T11:25:19;4.85;;;1.95;;
351;SDS011;164;50.784;6.496;2022-12-20T11:27:54;3.53;;;2.58;;
351;SDS011;164;50.784;6.496;2022-12-20T11:30:24;2.88;;;1.23;;
351;SDS011;164;50.784;6.496;2022-12-20T11:35:40;5.22;;;1.85;;
351;SDS011;164;50.784;6.496;2022-12-20T11:38:10;4.55;;;1.65;;
351;SDS011;164;50.784;6.496;2022-12-20T11:40:39;2.30;;;1.90;;
351;SDS011;164;50.784;6.496;2022-12-20T11:43:14;3.45;;;1.90;;
351;SDS011;164;50.784;6.496;2022-12-20T11:45:46;2.30;;;1.60;;
351;SDS011;164;50.784;6.496;2022-12-20T11:48:25;1.67;;;1.58;;
351;SDS011;164;50.784;6.496;2022-12-20T11:51:01;4.32;;;1.75;;
351;SDS011;164;50.784;6.496;2022-12-20T11:53:31;1.85;;;1.63;;
351;SDS011;164;50.784;6.496;2022-12-20T11:56:04;2.67;;;1.50;;
351;SDS011;164;50.784;6.496;2022-12-20T11:58:35;5.30;;;2.00;;
351;SDS011;164;50.784;6.496;2022-12-20T12:01:07;1.88;;;1.70;;
351;SDS011;164;50.784;6.496;2022-12-20T12:03:37;3.08;;;1.90;;
351;SDS011;164;50.784;6.496;2022-12-20T12:06:06;4.75;;;2.35;;
351;SDS011;164;50.784;6.496;2022-12-20T12:08:39;2.53;;;1.65;;
351;SDS011;164;50.784;6.496;2022-12-20T12:11:10;3.58;;;1.83;;
351;SDS011;164;50.784;6.496;2022-12-20T12:13:39;5.10;;;2.30;;
351;SDS011;164;50.784;6.496;2022-12-20T12:16:09;3.53;;;2.45;;
351;SDS011;164;50.784;6.496;2022-12-20T12:18:38;3.05;;;1.95;;
351;SDS011;164;50.784;6.496;2022-12-20T12:21:08;5.90;;;2.05;;
351;SDS011;164;50.784;6.496;2022-12-20T12:23:38;2.83;;;2.08;;
351;SDS011;164;50.784;6.496;2022-12-20T12:26:11;5.13;;;2.28;;
351;SDS011;164;50.784;6.496;2022-12-20T12:28:38;2.97;;;2.03;;
351;SDS011;164;50.784;6.496;2022-12-20T12:31:06;2.38;;;1.73;;
351;SDS011;164;50.784;6.496;2022-12-20T12:33:39;2.90;;;2.60;;
351;SDS011;164;50.784;6.496;2022-12-20T12:36:15;3.65;;;2.08;;
351;SDS011;164;50.784;6.496;2022-12-20T12:38:53;1.98;;;1.80;;
351;SDS011;164;50.784;6.496;2022-12-20T12:41:30;2.80;;;2.38;;
351;SDS011;164;50.784;6.496;2022-12-20T12:44:01;2.75;;;1.88;;
351;SDS011;164;50.784;6.496;2022-12-20T12:46:31;1.77;;;1.67;;
351;SDS011;164;50.784;6.496;2022-12-20T12:49:03;1.90;;;1.60;;
351;SDS011;164;50.784;6.496;2022-12-20T12:51:31;6.03;;;2.10;;
351;SDS011;164;50.784;6.496;2022-12-20T12:54:04;3.08;;;2.08;;
351;SDS011;164;50.784;6.496;2022-12-20T12:56:40;1.17;;;1.00;;
351;SDS011;164;50.784;6.496;2022-12-20T12:59:12;2.97;;;1.60;;
351;SDS011;164;50.784;6.496;2022-12-20T13:01:46;1.90;;;1.60;;
351;SDS011;164;50.784;6.496;2022-12-20T13:04:23;3.20;;;1.88;;
351;SDS011;164;50.784;6.496;2022-12-20T13:06:55;3.15;;;1.60;;
351;SDS011;164;50.784;6.496;2022-12-20T13:09:35;3.10;;;1.33;;
351;SDS011;164;50.784;6.496;2022-12-20T13:14:48;2.38;;;1.73;;
351;SDS011;164;50.784;6.496;2022-12-20T13:17:41;2.00;;;1.60;;
351;SDS011;164;50.784;6.496;2022-12-20T13:25:27;2.67;;;1.88;;
351;SDS011;164;50.784;6.496;2022-12-20T13:30:38;4.75;;;1.65;;
351;SDS011;164;50.784;6.496;2022-12-20T13:35:55;2.90;;;1.70;;
351;SDS011;164;50.784;6.496;2022-12-20T13:41:19;2.00;;;1.50;;
351;SDS011;164;50.784;6.496;2022-12-20T13:43:47;1.80;;;1.73;;
351;SDS011;164;50.784;6.496;2022-12-20T13:46:18;2.42;;;1.90;;
351;SDS011;164;50.784;6.496;2022-12-20T13:48:48;2.40;;;1.77;;
351;SDS011;164;50.784;6.496;2022-12-20T13:51:16;2.00;;;1.80;;
351;SDS011;164;50.784;6.496;2022-12-20T13:53:48;3.70;;;1.98;;
351;SDS011;164;50.784;6.496;2022-12-20T13:56:27;4.70;;;2.30;;
351;SDS011;164;50.784;6.496;2022-12-20T13:58:58;2.95;;;2.22;;
351;SDS011;164;50.784;6.496;2022-12-20T14:01:29;2.60;;;1.90;;
351;SDS011;164;50.784;6.496;2022-12-20T14:03:56;3.28;;;2.00;;
351;SDS011;164;50.784;6.496;2022-12-20T14:06:23;4.60;;;2.72;;
351;SDS011;164;50.784;6.496;2022-12-20T14:08:51;3.13;;;1.70;;
351;SDS011;164;50.784;6.496;2022-12-20T14:11:19;2.78;;;2.03;;
351;SDS011;164;50.784;6.496;2022-12-20T14:13:51;2.38;;;1.80;;
351;SDS011;164;50.784;6.496;2022-12-20T14:16:19;1.88;;;1.75;;
351;SDS011;164;50.784;6.496;2022-12-20T14:18:47;4.50;;;2.50;;
351;SDS011;164;50.784;6.496;2022-12-20T14:21:15;2.58;;;2.13;;
351;SDS011;164;50.784;6.496;2022-12-20T14:23:44;3.47;;;2.20;;
351;SDS011;164;50.784;6.496;2022-12-20T14:26:13;3.05;;;2.00;;
351;SDS011;164;50.784;6.496;2022-12-20T14:28:41;4.90;;;1.65;;
351;SDS011;164;50.784;6.496;2022-12-20T14:31:22;3.22;;;2.00;;
351;SDS011;164;50.784;6.496;2022-12-20T14:33:50;3.20;;;1.90;;
351;SDS011;164;50.784;6.496;2022-12-20T14:36:18;3.35;;;1.95;;
351;SDS011;164;50.784;6.496;2022-12-20T14:38:46;6.60;;;2.20;;
351;SDS011;164;50.784;6.496;2022-12-20T14:41:30;3.58;;;2.10;;
351;SDS011;164;50.784;6.496;2022-12-20T14:43:59;1.65;;;1.25;;
351;SDS011;164;50.784;6.496;2022-12-20T14:46:29;4.07;;;3.25;;
351;SDS011;164;50.784;6.496;2022-12-20T14:49:16;1.60;;;1.52;;
351;SDS011;164;50.784;6.496;2022-12-20T14:51:45;1.73;;;1.70;;
351;SDS011;164;50.784;6.496;2022-12-20T14:54:15;2.38;;;1.75;;
351;SDS011;164;50.784;6.496;2022-12-20T14:56:44;2.28;;;1.63;;
351;SDS011;164;50.784;6.496;2022-12-20T14:59:12;2.20;;;1.63;;
351;SDS011;164;50.784;6.496;2022-12-20T15:01:41;2.72;;;2.45;;
351;SDS011;164;50.784;6.496;2022-12-20T15:04:19;2.95;;;2.40;;
351;SDS011;164;50.784;6.496;2022-12-20T15:06:52;3.53;;;2.28;;
351;SDS011;164;50.784;6.496;2022-12-20T15:09:20;3.70;;;2.17;;
351;SDS011;164;50.784;6.496;2022-12-20T15:11:48;3.00;;;1.60;;
351;SDS011;164;50.784;6.496;2022-12-20T15:14:32;2.70;;;1.95;;
351;SDS011;164;50.784;6.496;2022-12-20T15:17:02;4.82;;;1.80;;
351;SDS011;164;50.784;6.496;2022-12-20T15:19:30;4.75;;;2.47;;
351;SDS011;164;50.784;6.496;2022-12-20T15:21:58;4.45;;;2.15;;
351;SDS011;164;50.784;6.496;2022-12-20T15:24:31;3.53;;;2.97;;
351;SDS011;164;50.784;6.496;2022-12-20T15:26:58;2.28;;;2.15;;
351;SDS011;164;50.784;6.496;2022-12-20T15:29:25;3.05;;;2.33;;
351;SDS011;164;50.784;6.496;2022-12-20T15:32:02;2.08;;;1.70;;
351;SDS011;164;50.784;6.496;2022-12-20T15:34:33;6.85;;;2.33;;
351;SDS011;164;50.784;6.496;2022-12-20T15:37:01;2.55;;;1.85;;
351;SDS011;164;50.784;6.496;2022-12-20T15:39:29;3.65;;;2.05;;
351;SDS011;164;50.784;6.496;2022-12-20T15:41:57;2.40;;;2.03;;
351;SDS011;164;50.784;6.496;2022-12-20T15:44:25;4.13;;;2.05;;
351;SDS011;164;50.784;6.496;2022-12-20T15:46:53;3.67;;;2.60;;
351;SDS011;164;50.784;6.496;2022-12-20T15:49:21;3.55;;;1.85;;
351;SDS011;164;50.784;6.496;2022-12-20T15:51:51;3.85;;;1.60;;
351;SDS011;164;50.784;6.496;2022-12-20T15:54:21;1.27;;;1.23;;
351;SDS011;164;50.784;6.496;2022-12-20T15:56:51;1.50;;;1.40;;
351;SDS011;164;50.784;6.496;2022-12-20T15:59:18;2.10;;;1.63;;
351;SDS011;164;50.784;6.496;2022-12-20T16:01:45;1.75;;;1.55;;
351;SDS011;164;50.784;6.496;2022-12-20T16:04:14;1.50;;;1.40;;
351;SDS011;164;50.784;6.496;2022-12-20T16:06:41;1.83;;;1.40;;
351;SDS011;164;50.784;6.496;2022-12-20T16:09:10;3.90;;;1.13;;
351;SDS011;164;50.784;6.496;2022-12-20T16:11:37;1.70;;;1.60;;
351;SDS011;164;50.784;6.496;2022-12-20T16:14:05;1.98;;;1.50;;
351;SDS011;164;50.784;6.496;2022-12-20T16:16:33;2.30;;;1.65;;
351;SDS011;164;50.784;6.496;2022-12-20T16:19:00;2.13;;;1.85;;
351;SDS011;164;50.784;6.496;2022-12-20T16:21:29;2.70;;;1.50;;
351;SDS011;164;50.784;6.496;2022-12-20T16:23:57;2.83;;;2.15;;
351;SDS011;164;50.784;6.496;2022-12-20T16:26:26;1.65;;;1.58;;